createdAt,value
2023-05-06T00:01:19.586Z,13.20
2023-05-06T00:03:46.940Z,14.32
2023-05-06T00:06:13.935Z,14.32
2023-05-06T00:08:40.736Z,15.43
2023-05-06T00:11:07.526Z,15.80
2023-05-06T00:13:34.763Z,15.50
2023-05-06T00:16:01.798Z,15.60
2023-05-06T00:18:28.617Z,15.48
2023-05-06T00:20:56.064Z,15.73
2023-05-06T00:23:22.913Z,14.50
2023-05-06T00:25:49.705Z,14.98
2023-05-06T00:28:16.599Z,13.98
2023-05-06T00:30:43.375Z,13.52
2023-05-06T00:33:10.350Z,12.40
2023-05-06T00:35:37.201Z,13.95
2023-05-06T00:38:12.872Z,14.90
2023-05-06T00:40:40.346Z,15.90
2023-05-06T00:43:07.368Z,14.30
2023-05-06T00:45:34.539Z,16.55
2023-05-06T00:48:02.032Z,14.77
2023-05-06T00:50:29.829Z,16.40
2023-05-06T00:52:58.253Z,15.55
2023-05-06T00:55:25.674Z,15.63
2023-05-06T00:57:53.322Z,16.25
2023-05-06T01:00:21.502Z,14.95
2023-05-06T01:02:49.271Z,15.95
2023-05-06T01:05:17.826Z,15.70
2023-05-06T01:08:13.006Z,16.23
2023-05-06T01:10:56.504Z,15.13
2023-05-06T01:13:23.328Z,14.63
2023-05-06T01:15:55.528Z,15.55
2023-05-06T01:18:25.566Z,15.75
2023-05-06T01:20:54.396Z,15.38
2023-05-06T01:23:21.440Z,16.55
2023-05-06T01:25:48.331Z,16.73
2023-05-06T01:28:17.294Z,16.15
2023-05-06T01:30:52.883Z,14.13
2023-05-06T01:33:36.059Z,13.73
2023-05-06T01:36:18.839Z,14.02
2023-05-06T01:38:54.855Z,14.23
2023-05-06T01:41:24.082Z,10.70
2023-05-06T01:43:54.265Z,11.52
2023-05-06T01:46:24.299Z,11.88
2023-05-06T01:48:55.014Z,12.80
2023-05-06T01:51:23.442Z,11.93
2023-05-06T01:53:50.385Z,12.20
2023-05-06T01:56:17.635Z,12.18
2023-05-06T01:58:44.463Z,12.57
2023-05-06T02:01:11.354Z,11.07
2023-05-06T02:03:39.521Z,11.07
2023-05-06T02:06:07.204Z,11.68
2023-05-06T02:08:40.086Z,10.77
2023-05-06T02:11:08.149Z,12.25
2023-05-06T02:13:35.633Z,10.95
2023-05-06T02:16:03.027Z,11.77
2023-05-06T02:18:29.967Z,11.00
2023-05-06T02:20:56.857Z,12.02
2023-05-06T02:23:23.627Z,11.05
2023-05-06T02:25:51.790Z,10.00
2023-05-06T02:28:18.758Z,10.00
2023-05-06T02:30:45.676Z,9.88
2023-05-06T02:33:12.610Z,10.60
2023-05-06T02:35:39.846Z,10.32
2023-05-06T02:38:06.679Z,10.60
2023-05-06T02:40:34.261Z,10.40
2023-05-06T02:43:01.486Z,10.65
2023-05-06T02:45:28.353Z,9.80
2023-05-06T02:47:55.344Z,10.82
2023-05-06T02:50:22.158Z,10.32
2023-05-06T02:52:49.013Z,10.77
2023-05-06T02:55:16.044Z,10.75
2023-05-06T02:57:42.920Z,10.43
2023-05-06T03:00:11.023Z,11.07
2023-05-06T03:02:37.957Z,10.35
2023-05-06T03:05:05.479Z,9.77
2023-05-06T03:07:32.584Z,9.95
2023-05-06T03:09:59.728Z,10.60
2023-05-06T03:12:26.791Z,9.27
2023-05-06T03:14:53.673Z,9.80
2023-05-06T03:17:21.663Z,10.10
2023-05-06T03:19:50.412Z,9.77
2023-05-06T03:22:18.573Z,10.55
2023-05-06T03:24:46.322Z,10.95
2023-05-06T03:27:13.248Z,10.38
2023-05-06T03:29:41.504Z,11.25
2023-05-06T03:32:10.070Z,10.85
2023-05-06T03:34:41.853Z,9.63
2023-05-06T03:37:12.001Z,10.57
2023-05-06T03:39:43.997Z,11.10
2023-05-06T03:42:11.578Z,10.90
2023-05-06T03:44:38.638Z,10.25
2023-05-06T03:47:05.966Z,10.90
2023-05-06T03:49:33.887Z,10.80
2023-05-06T03:52:00.800Z,10.40
2023-05-06T03:54:27.696Z,10.55
2023-05-06T03:56:54.736Z,10.32
2023-05-06T03:59:21.585Z,10.52
2023-05-06T04:01:48.457Z,11.23
2023-05-06T04:04:16.162Z,10.75
2023-05-06T04:06:44.641Z,10.82
2023-05-06T04:09:11.532Z,10.45
2023-05-06T04:11:39.554Z,10.70
2023-05-06T04:14:08.916Z,10.43
2023-05-06T04:16:37.870Z,10.18
2023-05-06T04:19:06.617Z,10.48
2023-05-06T04:21:35.122Z,10.32
2023-05-06T04:24:07.105Z,9.85
2023-05-06T04:26:37.748Z,10.07
2023-05-06T04:29:05.173Z,9.45
2023-05-06T04:31:35.146Z,10.15
2023-05-06T04:34:04.815Z,10.05
2023-05-06T04:36:32.802Z,10.13
2023-05-06T04:39:21.053Z,9.85
2023-05-06T04:41:49.242Z,9.30
2023-05-06T04:44:22.353Z,9.80
2023-05-06T04:46:49.386Z,9.32
2023-05-06T04:49:16.680Z,9.13
2023-05-06T04:51:44.642Z,8.40
2023-05-06T04:54:11.538Z,9.35
2023-05-06T04:56:39.587Z,9.27
2023-05-06T04:59:08.714Z,9.05
2023-05-06T05:01:35.653Z,9.02
2023-05-06T05:04:02.595Z,9.70
2023-05-06T05:06:29.498Z,9.10
2023-05-06T05:08:57.066Z,10.57
2023-05-06T05:11:24.607Z,8.75
2023-05-06T05:13:51.609Z,9.38
2023-05-06T05:16:18.540Z,8.60
2023-05-06T05:18:46.729Z,10.35
2023-05-06T05:21:18.557Z,10.70
2023-05-06T05:23:46.632Z,10.35
2023-05-06T05:26:14.173Z,9.93
2023-05-06T05:28:43.594Z,9.80
2023-05-06T05:31:11.257Z,9.20
2023-05-06T05:33:39.006Z,9.70
2023-05-06T05:36:09.084Z,9.40
2023-05-06T05:38:37.064Z,10.13
2023-05-06T05:41:04.673Z,10.10
2023-05-06T05:43:31.589Z,8.52
2023-05-06T05:46:00.050Z,9.10
2023-05-06T05:48:26.954Z,8.50
2023-05-06T05:50:54.791Z,8.77
2023-05-06T05:53:21.699Z,8.52
2023-05-06T05:55:48.604Z,9.40
2023-05-06T05:58:15.545Z,8.48
2023-05-06T06:00:44.220Z,8.68
2023-05-06T06:03:14.787Z,9.07
2023-05-06T06:05:41.856Z,8.73
2023-05-06T06:08:11.513Z,9.38
2023-05-06T06:10:38.960Z,9.95
2023-05-06T06:13:12.382Z,8.88
2023-05-06T06:15:39.289Z,8.15
2023-05-06T06:18:08.734Z,8.93
2023-05-06T06:20:37.981Z,11.30
2023-05-06T06:23:04.811Z,10.30
2023-05-06T06:25:31.704Z,10.70
2023-05-06T06:27:58.536Z,9.98
2023-05-06T06:30:25.672Z,10.10
2023-05-06T06:32:54.244Z,10.00
2023-05-06T06:35:21.122Z,9.43
2023-05-06T06:37:48.054Z,9.23
2023-05-06T06:40:15.462Z,10.13
2023-05-06T06:42:42.319Z,9.77
2023-05-06T06:45:28.999Z,10.00
2023-05-06T06:47:55.939Z,8.40
2023-05-06T06:50:22.875Z,9.25
2023-05-06T06:52:49.712Z,8.60
2023-05-06T06:55:16.664Z,9.50
2023-05-06T06:57:43.469Z,7.47
2023-05-06T07:00:10.953Z,7.57
2023-05-06T07:02:37.877Z,7.57
2023-05-06T07:05:05.115Z,7.05
2023-05-06T07:07:32.513Z,7.28
2023-05-06T07:09:59.680Z,7.03
2023-05-06T07:12:26.860Z,7.65
2023-05-06T07:14:53.821Z,6.90
2023-05-06T07:17:20.818Z,7.03
2023-05-06T07:19:47.812Z,6.80
2023-05-06T07:26:01.570Z,5.57
2023-05-06T07:28:28.681Z,6.07
2023-05-06T07:30:55.841Z,6.43
2023-05-06T07:33:23.055Z,6.85
2023-05-06T07:35:49.930Z,6.78
2023-05-06T07:38:17.328Z,5.88
2023-05-06T07:40:44.752Z,6.63
2023-05-06T07:43:11.998Z,5.75
2023-05-06T07:45:38.889Z,5.50
2023-05-06T07:48:06.154Z,6.72
2023-05-06T07:50:33.090Z,7.00
2023-05-06T07:53:00.355Z,6.28
2023-05-06T07:55:27.925Z,6.32
2023-05-06T07:57:54.740Z,6.28
2023-05-06T08:00:21.640Z,5.03
2023-05-06T08:02:48.683Z,5.25
2023-05-06T08:05:15.840Z,4.60
2023-05-06T08:07:42.767Z,4.95
2023-05-06T08:10:10.388Z,5.30
2023-05-06T08:12:38.183Z,4.78
2023-05-06T08:15:05.569Z,5.50
2023-05-06T08:17:32.517Z,4.68
2023-05-06T08:19:59.572Z,4.10
2023-05-06T08:22:26.863Z,3.47
2023-05-06T08:24:54.756Z,4.10
2023-05-06T08:27:21.830Z,3.88
2023-05-06T08:29:48.934Z,3.88
2023-05-06T08:32:16.069Z,3.83
2023-05-06T08:34:42.978Z,5.20
2023-05-06T08:37:10.035Z,4.90
2023-05-06T08:39:37.053Z,4.32
2023-05-06T08:42:05.191Z,3.60
2023-05-06T08:44:33.551Z,3.22
2023-05-06T08:47:00.565Z,3.38
2023-05-06T08:49:27.789Z,3.97
2023-05-06T08:51:55.316Z,3.85
2023-05-06T08:54:25.547Z,3.75
2023-05-06T08:56:54.782Z,3.00
2023-05-06T08:59:25.497Z,3.15
2023-05-06T09:01:53.925Z,3.60
2023-05-06T09:04:21.342Z,3.65
2023-05-06T09:06:49.011Z,2.60
2023-05-06T09:09:16.696Z,2.70
2023-05-06T09:11:43.992Z,3.08
2023-05-06T09:14:15.727Z,2.90
2023-05-06T09:16:45.197Z,3.25
2023-05-06T09:19:12.769Z,3.10
2023-05-06T09:21:43.895Z,2.67
2023-05-06T09:24:12.874Z,3.38
2023-05-06T09:26:42.276Z,2.55
2023-05-06T09:29:09.588Z,2.27
2023-05-06T09:31:47.750Z,2.42
2023-05-06T09:34:15.545Z,3.13
2023-05-06T09:36:42.508Z,2.97
2023-05-06T09:39:10.111Z,2.78
2023-05-06T09:41:37.518Z,2.78
2023-05-06T09:44:04.952Z,2.50
2023-05-06T09:46:32.945Z,2.90
2023-05-06T09:49:00.724Z,2.95
2023-05-06T09:51:28.656Z,2.42
2023-05-06T09:53:57.787Z,2.45
2023-05-06T09:56:25.994Z,2.67
2023-05-06T09:58:55.795Z,2.30
2023-05-06T10:01:35.333Z,3.05
2023-05-06T10:04:12.879Z,3.17
2023-05-06T10:06:44.269Z,2.78
2023-05-06T10:09:11.582Z,2.60
2023-05-06T10:11:39.328Z,2.90
2023-05-06T10:14:07.759Z,1.75
2023-05-06T10:16:36.399Z,2.50
2023-05-06T10:19:06.580Z,2.70
2023-05-06T10:21:36.069Z,2.92
2023-05-06T10:24:09.995Z,2.70
2023-05-06T10:26:38.454Z,2.78
2023-05-06T10:29:09.445Z,3.40
2023-05-06T10:31:44.465Z,2.60
2023-05-06T10:34:11.478Z,2.25
2023-05-06T10:36:40.112Z,2.28
2023-05-06T10:39:10.195Z,2.60
2023-05-06T10:41:38.342Z,3.92
2023-05-06T10:44:06.173Z,2.15
2023-05-06T10:46:59.711Z,2.17
2023-05-06T10:49:27.059Z,2.40
2023-05-06T10:52:17.844Z,2.42
2023-05-06T10:54:52.211Z,2.30
2023-05-06T10:57:22.018Z,2.42
2023-05-06T10:59:49.324Z,1.63
2023-05-06T11:02:20.375Z,1.42
2023-05-06T11:04:53.025Z,2.35
2023-05-06T11:07:24.275Z,2.22
2023-05-06T11:09:58.272Z,2.22
2023-05-06T11:12:36.021Z,1.60
2023-05-06T11:15:04.041Z,1.92
2023-05-06T11:17:33.532Z,2.20
2023-05-06T11:20:14.094Z,2.00
2023-05-06T11:22:42.684Z,2.22
2023-05-06T11:25:13.384Z,2.03
2023-05-06T11:27:41.591Z,1.95
2023-05-06T11:30:13.941Z,1.50
2023-05-06T11:32:44.885Z,1.58
2023-05-06T11:35:12.629Z,1.38
2023-05-06T11:37:40.103Z,1.98
2023-05-06T11:40:15.366Z,2.35
2023-05-06T11:42:42.895Z,2.40
2023-05-06T11:45:12.568Z,2.03
2023-05-06T11:47:45.842Z,1.85
2023-05-06T11:50:13.668Z,1.80
2023-05-06T11:52:41.566Z,1.88
2023-05-06T11:55:10.190Z,1.42
2023-05-06T11:57:45.599Z,1.60
2023-05-06T12:00:13.679Z,1.02
2023-05-06T12:02:41.845Z,1.42
2023-05-06T12:05:09.981Z,1.85
2023-05-06T12:07:37.718Z,2.15
2023-05-06T12:10:05.415Z,1.70
2023-05-06T12:12:33.570Z,1.60
2023-05-06T12:15:01.835Z,1.55
2023-05-06T12:17:29.706Z,1.35
2023-05-06T12:19:58.163Z,1.60
2023-05-06T12:22:26.713Z,1.13
2023-05-06T12:24:55.313Z,1.55
2023-05-06T12:27:36.036Z,1.48
2023-05-06T12:30:05.062Z,1.48
2023-05-06T12:32:32.748Z,1.00
2023-05-06T12:35:06.051Z,0.90
2023-05-06T12:37:34.050Z,1.17
2023-05-06T12:40:03.311Z,1.33
2023-05-06T12:42:32.316Z,1.20
2023-05-06T12:45:14.633Z,1.50
2023-05-06T12:47:53.071Z,1.45
2023-05-06T12:50:38.116Z,1.40
2023-05-06T12:53:15.768Z,1.13
2023-05-06T12:55:56.790Z,1.48
2023-05-06T12:58:24.073Z,0.90
2023-05-06T13:00:51.093Z,1.30
2023-05-06T13:03:19.345Z,1.20
2023-05-06T13:05:50.404Z,1.23
2023-05-06T13:08:17.296Z,1.48
2023-05-06T13:10:44.187Z,1.20
2023-05-06T13:13:11.592Z,1.48
2023-05-06T13:15:39.108Z,1.27
2023-05-06T13:18:06.193Z,1.38
2023-05-06T13:20:33.200Z,1.02
2023-05-06T13:23:00.116Z,1.08
2023-05-06T13:25:27.319Z,1.45
2023-05-06T13:27:54.346Z,1.60
2023-05-06T13:30:21.488Z,1.27
2023-05-06T13:32:48.833Z,1.30
2023-05-06T13:35:15.771Z,1.20
2023-05-06T13:37:42.668Z,1.00
2023-05-06T13:40:10.574Z,1.13
2023-05-06T13:42:39.071Z,1.15
2023-05-06T13:45:06.892Z,1.25
2023-05-06T13:47:37.018Z,1.02
2023-05-06T13:50:05.834Z,1.00
2023-05-06T13:52:32.996Z,0.90
2023-05-06T13:54:59.810Z,1.08
2023-05-06T13:57:26.704Z,1.30
2023-05-06T13:59:53.571Z,1.10
2023-05-06T14:02:20.498Z,1.23
2023-05-06T14:04:47.683Z,1.17
2023-05-06T14:07:14.599Z,0.70
2023-05-06T14:09:41.450Z,1.02
2023-05-06T14:12:08.349Z,0.70
2023-05-06T14:14:35.164Z,1.20
2023-05-06T14:17:02.020Z,1.23
2023-05-06T14:19:30.061Z,1.10
2023-05-06T14:21:56.981Z,1.02
2023-05-06T14:24:23.798Z,0.95
2023-05-06T14:26:50.653Z,1.17
2023-05-06T14:29:17.506Z,1.10
2023-05-06T14:31:45.177Z,0.88
2023-05-06T14:34:12.129Z,1.20
2023-05-06T14:36:39.035Z,0.93
2023-05-06T14:39:06.067Z,0.75
2023-05-06T14:41:32.956Z,1.02
2023-05-06T14:43:59.884Z,1.25
2023-05-06T14:46:29.427Z,1.40
2023-05-06T14:48:56.728Z,1.20
2023-05-06T14:51:23.677Z,1.08
2023-05-06T14:53:50.738Z,1.50
2023-05-06T14:56:17.664Z,1.65
2023-05-06T14:58:44.535Z,1.30
2023-05-06T15:01:11.757Z,1.35
2023-05-06T15:03:38.686Z,1.20
2023-05-06T15:06:06.157Z,1.38
2023-05-06T15:08:33.348Z,1.15
2023-05-06T15:11:02.310Z,1.45
2023-05-06T15:13:30.661Z,0.90
2023-05-06T15:15:57.541Z,1.30
2023-05-06T15:18:24.465Z,1.10
2023-05-06T15:20:52.404Z,1.40
2023-05-06T15:23:20.473Z,1.70
2023-05-06T15:25:47.476Z,1.33
2023-05-06T15:28:14.395Z,1.45
2023-05-06T15:30:41.334Z,1.20
2023-05-06T15:33:08.985Z,1.52
2023-05-06T15:35:36.220Z,1.60
2023-05-06T15:38:03.788Z,1.25
2023-05-06T15:40:31.161Z,1.80
2023-05-06T15:42:59.392Z,1.27
2023-05-06T15:45:26.303Z,1.27
2023-05-06T15:47:54.268Z,1.55
2023-05-06T15:50:32.581Z,1.55
2023-05-06T15:53:01.449Z,1.45
2023-05-06T15:55:28.521Z,1.80
2023-05-06T15:57:55.609Z,2.33
2023-05-06T16:00:22.760Z,1.45
2023-05-06T16:02:49.770Z,1.27
2023-05-06T16:05:16.998Z,1.42
2023-05-06T16:07:43.989Z,1.27
2023-05-06T16:10:11.104Z,1.05
2023-05-06T16:12:38.123Z,1.52
2023-05-06T16:15:05.495Z,1.35
2023-05-06T16:17:37.380Z,1.13
2023-05-06T16:20:05.385Z,1.88
2023-05-06T16:22:32.347Z,1.73
2023-05-06T16:24:59.277Z,1.50
2023-05-06T16:27:28.203Z,1.30
2023-05-06T16:29:55.617Z,1.20
2023-05-06T16:32:23.685Z,1.25
2023-05-06T16:34:50.740Z,1.65
2023-05-06T16:37:17.726Z,1.80
2023-05-06T16:39:44.547Z,2.15
2023-05-06T16:42:11.337Z,1.90
2023-05-06T16:44:38.197Z,2.00
2023-05-06T16:47:05.334Z,1.88
2023-05-06T16:49:33.604Z,1.73
2023-05-06T16:52:00.992Z,1.80
2023-05-06T16:54:28.217Z,1.58
2023-05-06T16:56:55.251Z,1.35
2023-05-06T16:59:22.656Z,1.40
2023-05-06T17:01:50.368Z,1.50
2023-05-06T17:04:17.388Z,1.20
2023-05-06T17:06:44.315Z,1.85
2023-05-06T17:09:11.245Z,1.75
2023-05-06T17:11:38.165Z,1.17
2023-05-06T17:14:05.074Z,1.67
2023-05-06T17:16:32.002Z,1.52
2023-05-06T17:18:58.985Z,1.50
2023-05-06T17:21:27.839Z,1.58
2023-05-06T17:23:54.755Z,1.50
2023-05-06T17:26:22.096Z,1.58
2023-05-06T17:28:49.121Z,1.90
2023-05-06T17:31:16.161Z,1.55
2023-05-06T17:33:46.207Z,1.83
2023-05-06T17:36:13.935Z,1.40
2023-05-06T17:38:40.874Z,1.70
2023-05-06T17:41:07.707Z,1.75
2023-05-06T17:43:34.702Z,1.73
2023-05-06T17:46:01.736Z,1.63
2023-05-06T17:48:28.723Z,1.63
2023-05-06T17:51:02.063Z,1.85
2023-05-06T17:53:29.494Z,1.77
2023-05-06T17:55:56.372Z,1.80
2023-05-06T17:58:23.597Z,1.75
2023-05-06T18:00:50.534Z,2.28
2023-05-06T18:03:17.498Z,2.33
2023-05-06T18:05:45.738Z,2.13
2023-05-06T18:08:12.685Z,2.08
2023-05-06T18:10:41.308Z,2.33
2023-05-06T18:13:09.933Z,5.70
2023-05-06T18:15:37.212Z,7.38
2023-05-06T18:18:04.392Z,6.15
2023-05-06T18:20:32.496Z,4.43
2023-05-06T18:22:59.680Z,3.28
2023-05-06T18:25:26.834Z,2.25
2023-05-06T18:27:53.881Z,2.70
2023-05-06T18:30:20.850Z,2.55
2023-05-06T18:32:50.017Z,2.90
2023-05-06T18:37:45.086Z,3.03
2023-05-06T18:40:12.796Z,2.85
2023-05-06T18:42:40.061Z,3.38
2023-05-06T18:45:08.001Z,2.97
2023-05-06T18:47:37.077Z,2.53
2023-05-06T18:50:04.252Z,3.08
2023-05-06T18:52:31.434Z,2.45
2023-05-06T18:54:58.714Z,2.67
2023-05-06T18:57:27.056Z,3.08
2023-05-06T18:59:54.381Z,2.70
2023-05-06T19:02:21.326Z,3.22
2023-05-06T19:04:48.441Z,3.13
2023-05-06T19:07:17.405Z,3.03
2023-05-06T19:09:44.727Z,3.03
2023-05-06T19:12:11.676Z,3.22
2023-05-06T19:14:38.656Z,3.15
2023-05-06T19:17:06.055Z,4.13
2023-05-06T19:19:33.668Z,4.60
2023-05-06T19:22:02.512Z,4.15
2023-05-06T19:24:31.625Z,4.15
2023-05-06T19:26:58.895Z,3.90
2023-05-06T19:29:26.294Z,3.92
2023-05-06T19:31:53.435Z,3.80
2023-05-06T19:34:20.781Z,4.68
2023-05-06T19:36:49.117Z,4.70
2023-05-06T19:39:16.455Z,4.57
2023-05-06T19:41:43.403Z,5.07
2023-05-06T19:44:10.747Z,4.85
2023-05-06T19:46:38.305Z,5.85
2023-05-06T19:49:05.279Z,6.53
2023-05-06T19:51:32.951Z,7.68
2023-05-06T19:54:00.107Z,7.88
2023-05-06T19:56:26.999Z,8.48
2023-05-06T19:58:53.832Z,9.20
2023-05-06T20:01:23.866Z,8.55
2023-05-06T20:03:51.246Z,8.18
2023-05-06T20:06:18.193Z,8.18
2023-05-06T20:08:46.099Z,9.90
2023-05-06T20:11:13.393Z,9.95
2023-05-06T20:13:40.492Z,10.30
2023-05-06T20:16:07.356Z,10.75
2023-05-06T20:18:34.256Z,10.43
2023-05-06T20:21:01.246Z,9.63
2023-05-06T20:23:30.804Z,10.52
2023-05-06T20:25:57.648Z,10.32
2023-05-06T20:28:24.488Z,12.10
2023-05-06T20:30:51.546Z,12.27
2023-05-06T20:33:18.454Z,12.38
2023-05-06T20:35:45.777Z,12.27
2023-05-06T20:38:12.661Z,11.73
2023-05-06T20:40:39.650Z,12.57
2023-05-06T20:43:06.463Z,14.07
2023-05-06T20:45:33.337Z,13.57
2023-05-06T20:48:00.307Z,13.30
2023-05-06T20:50:29.528Z,13.05
2023-05-06T20:52:57.024Z,13.10
2023-05-06T20:55:24.671Z,12.73
2023-05-06T20:57:52.078Z,13.93
2023-05-06T21:00:19.335Z,13.35
2023-05-06T21:02:46.397Z,14.05
2023-05-06T21:05:13.815Z,13.30
2023-05-06T21:07:41.203Z,14.30
2023-05-06T21:10:09.243Z,14.38
2023-05-06T21:12:36.059Z,15.20
2023-05-06T21:15:03.175Z,14.52
2023-05-06T21:17:30.120Z,14.25
2023-05-06T21:19:57.030Z,14.07
2023-05-06T21:22:24.269Z,14.27
2023-05-06T21:24:51.420Z,14.10
2023-05-06T21:27:18.462Z,13.48
2023-05-06T21:29:45.439Z,15.10
2023-05-06T21:32:12.430Z,13.00
2023-05-06T21:34:39.357Z,13.70
2023-05-06T21:37:06.237Z,12.82
2023-05-06T21:39:33.128Z,13.73
2023-05-06T21:41:59.987Z,13.45
2023-05-06T21:44:26.929Z,14.30
2023-05-06T21:46:53.853Z,14.73
2023-05-06T21:49:22.294Z,14.38
2023-05-06T21:51:49.491Z,13.70
2023-05-06T21:54:17.328Z,13.77
2023-05-06T21:56:44.544Z,13.73
2023-05-06T21:59:11.400Z,13.68
2023-05-06T22:01:39.021Z,14.93
2023-05-06T22:04:11.132Z,15.05
2023-05-06T22:06:38.941Z,13.80
2023-05-06T22:09:09.305Z,14.52
2023-05-06T22:11:38.246Z,14.13
2023-05-06T22:14:06.445Z,13.23
2023-05-06T22:16:38.032Z,14.13
2023-05-06T22:19:05.994Z,14.80
2023-05-06T22:21:36.541Z,14.88
2023-05-06T22:24:03.616Z,15.25
2023-05-06T22:26:30.557Z,14.20
2023-05-06T22:28:57.426Z,13.52
2023-05-06T22:31:24.769Z,15.45
2023-05-06T22:33:55.432Z,13.95
2023-05-06T22:36:22.581Z,13.60
2023-05-06T22:38:49.553Z,15.10
2023-05-06T22:41:18.298Z,14.05
2023-05-06T22:43:45.222Z,15.20
2023-05-06T22:46:12.093Z,15.63
2023-05-06T22:48:39.132Z,16.50
2023-05-06T22:51:06.387Z,14.63
2023-05-06T22:53:33.237Z,14.57
2023-05-06T22:56:00.187Z,14.73
2023-05-06T22:58:27.097Z,13.85
2023-05-06T23:00:54.858Z,15.55
2023-05-06T23:03:22.820Z,15.23
2023-05-06T23:05:49.946Z,13.60
2023-05-06T23:08:16.861Z,14.07
2023-05-06T23:10:44.806Z,14.05
2023-05-06T23:13:12.082Z,15.05
2023-05-06T23:15:39.935Z,14.25
2023-05-06T23:18:07.197Z,15.27
2023-05-06T23:20:34.080Z,14.95
2023-05-06T23:23:00.934Z,14.57
2023-05-06T23:25:27.872Z,15.25
2023-05-06T23:27:55.077Z,15.63
2023-05-06T23:30:21.932Z,14.18
2023-05-06T23:32:48.870Z,14.55
2023-05-06T23:35:18.128Z,15.77
2023-05-06T23:37:44.988Z,16.67
2023-05-06T23:40:13.963Z,16.13
2023-05-06T23:42:41.476Z,15.32
2023-05-06T23:45:09.444Z,15.80
2023-05-06T23:47:36.624Z,16.27
2023-05-06T23:50:03.671Z,17.40
2023-05-06T23:52:30.731Z,16.77
2023-05-06T23:54:57.546Z,16.77
2023-05-06T23:57:25.752Z,17.98
2023-05-06T23:59:52.594Z,16.75
